Time;durP1;ratioP1;P1;durP2;ratioP2;P2;SDS_P1;SDS_P2;PMS_P1;PMS_P2;Temp;Humidity;BMP_temperature;BMP_pressure;BME280_temperature;BME280_humidity;BME280_pressure;Samples;Min_cycle;Max_cycle;Signal;HPM_P1;HPM_P2
2024/02/27 00:01:55;;;;;;;;;;;;;;;16.50;46.87;100929.97;5039788;28;1192;-58
2024/02/27 00:04:21;;;;;;;;;;;;;;;17.31;48.34;100939.47;5039366;28;1079;-57
2024/02/27 00:06:49;;;;;;;;;;;;;;;17.88;48.36;100939.41;5038986;28;881;-57
2024/02/27 00:09:18;;;;;;;;;;;;;;;17.04;48.97;100940.56;5039612;28;1011;-56
2024/02/27 00:11:44;;;;;;;;;;;;;;;17.31;49.18;100938.66;5039796;28;1151;-53
2024/02/27 00:14:09;;;;;;;;;;;;;;;17.34;49.12;100936.16;5039183;28;1976;-56
2024/02/27 00:16:35;;;;;;;;;;;;;;;16.87;49.02;100937.19;5039174;28;1038;-55
2024/02/27 00:19:01;;;;;;;;;;;;;;;16.64;48.09;100933.03;5038976;28;1047;-55
2024/02/27 00:21:26;;;;;;;;;;;;;;;16.47;47.38;100931.31;5037312;28;2718;-56
2024/02/27 00:23:52;;;;;;;;;;;;;;;16.36;46.92;100935.94;5039889;28;1090;-57
2024/02/27 00:26:17;;;;;;;;;;;;;;;16.32;46.50;100934.81;5038944;28;1031;-56
2024/02/27 00:28:43;;;;;;;;;;;;;;;17.79;47.82;100929.00;5039014;28;1094;-56
2024/02/27 00:31:08;;;;;;;;;;;;;;;16.73;49.25;100937.72;5039135;28;961;-57
2024/02/27 00:33:34;;;;;;;;;;;;;;;16.50;48.43;100932.69;5038836;28;1031;-57
2024/02/27 00:36:02;;;;;;;;;;;;;;;16.42;47.40;100934.88;5039082;28;1906;-58
2024/02/27 00:38:28;;;;;;;;;;;;;;;16.99;48.37;100935.03;5035851;28;993;-55
2024/02/27 00:40:53;;;;;;;;;;;;;;;18.10;47.67;100941.88;5029351;28;1099;-58
2024/02/27 00:43:19;;;;;;;;;;;;;;;16.93;49.11;100941.63;5038497;28;1122;-55
2024/02/27 00:45:44;;;;;;;;;;;;;;;16.68;48.51;100945.13;5038793;28;1071;-58
2024/02/27 00:48:10;;;;;;;;;;;;;;;16.47;47.63;100946.97;5038675;28;1258;-57
2024/02/27 00:50:36;;;;;;;;;;;;;;;16.26;47.41;100952.38;5033281;28;2459;-57
2024/02/27 00:53:01;;;;;;;;;;;;;;;17.34;48.42;100955.41;5034477;28;1072;-58
2024/02/27 00:55:27;;;;;;;;;;;;;;;17.58;48.64;100946.59;5028747;28;1902;-58
2024/02/27 00:57:52;;;;;;;;;;;;;;;16.83;48.94;100956.16;5035083;28;1016;-57
2024/02/27 01:00:18;;;;;;;;;;;;;;;16.53;48.28;100948.63;5038722;28;1210;-56
2024/02/27 01:02:44;;;;;;;;;;;;;;;16.37;47.65;100943.09;5038802;28;1106;-56
2024/02/27 01:05:09;;;;;;;;;;;;;;;16.24;46.96;100946.28;5038739;28;1179;-58
2024/02/27 01:07:35;;;;;;;;;;;;;;;17.73;48.32;100941.09;5025241;28;929;-57
2024/02/27 01:10:00;;;;;;;;;;;;;;;17.22;49.37;100946.59;5038554;28;1099;-58
2024/02/27 01:12:26;;;;;;;;;;;;;;;16.69;48.80;100950.34;5038240;28;1067;-56
2024/02/27 01:14:52;;;;;;;;;;;;;;;16.54;47.92;100953.03;5038406;28;1973;-56
2024/02/27 01:17:17;;;;;;;;;;;;;;;17.45;48.85;100956.25;5038305;28;1066;-58
2024/02/27 01:19:43;;;;;;;;;;;;;;;17.05;49.07;100957.84;5038054;28;880;-57
2024/02/27 01:22:08;;;;;;;;;;;;;;;16.63;48.48;100956.88;5037786;28;2664;-56
2024/02/27 01:24:34;;;;;;;;;;;;;;;16.46;47.90;100956.28;5037839;28;1054;-58
2024/02/27 01:26:59;;;;;;;;;;;;;;;16.34;46.97;100951.84;5038393;28;1027;-57
2024/02/27 01:29:25;;;;;;;;;;;;;;;16.68;48.22;100962.41;5037825;28;1035;-57
2024/02/27 01:31:51;;;;;;;;;;;;;;;18.11;47.72;100955.34;5038390;28;977;-56
2024/02/27 01:34:17;;;;;;;;;;;;;;;16.98;49.23;100960.84;5037961;28;1894;-57
2024/02/27 01:36:43;;;;;;;;;;;;;;;16.55;49.01;100958.25;5037982;28;1051;-54
2024/02/27 01:39:08;;;;;;;;;;;;;;;16.38;48.37;100950.22;5037606;28;1059;-57
2024/02/27 01:41:44;;;;;;;;;;;;;;;16.51;48.29;100964.53;5037579;28;1130;-56
2024/02/27 01:44:09;;;;;;;;;;;;;;;17.44;48.73;100960.91;5037694;28;877;-55
2024/02/27 01:46:35;;;;;;;;;;;;;;;16.70;49.07;100962.13;5037540;28;1180;-58
2024/02/27 01:49:01;;;;;;;;;;;;;;;16.44;48.38;100962.06;5037980;28;1819;-58
2024/02/27 01:51:27;;;;;;;;;;;;;;;17.09;48.60;100967.19;5036945;28;2376;-57
2024/02/27 01:53:53;;;;;;;;;;;;;;;17.92;48.06;100965.28;5036539;28;1047;-58
2024/02/27 01:56:18;;;;;;;;;;;;;;;16.92;49.12;100971.00;5036753;28;1914;-58
2024/02/27 01:58:44;;;;;;;;;;;;;;;16.71;48.37;100967.34;5036237;28;1144;-58
2024/02/27 02:01:10;;;;;;;;;;;;;;;16.48;48.07;100968.66;5036989;28;1119;-58
2024/02/27 02:03:36;;;;;;;;;;;;;;;17.74;48.32;100970.25;5037447;28;1051;-58
2024/02/27 02:06:02;;;;;;;;;;;;;;;16.86;49.04;100966.59;5035967;28;1168;-58
2024/02/27 02:08:28;;;;;;;;;;;;;;;16.56;48.41;100967.31;5017390;28;1115;-57
2024/02/27 02:10:54;;;;;;;;;;;;;;;16.42;47.29;100977.94;5034198;28;1048;-58
2024/02/27 02:13:20;;;;;;;;;;;;;;;16.26;46.89;100963.34;5035944;28;1017;-57
2024/02/27 02:15:46;;;;;;;;;;;;;;;17.48;48.01;100980.44;5033510;28;1917;-58
2024/02/27 02:18:12;;;;;;;;;;;;;;;17.08;49.05;100977.38;5027158;28;1501;-58
2024/02/27 02:20:39;;;;;;;;;;;;;;;16.61;48.52;100975.56;5025524;28;2721;-57
2024/02/27 02:23:05;;;;;;;;;;;;;;;16.48;47.79;100973.31;5036857;28;1068;-58
2024/02/27 02:25:31;;;;;;;;;;;;;;;16.31;47.15;100966.09;5033519;28;1101;-58
2024/02/27 02:27:57;;;;;;;;;;;;;;;16.61;48.04;100964.59;5059576;28;1015;-57
2024/02/27 02:30:22;;;;;;;;;;;;;;;17.66;48.24;100972.75;5036583;28;1138;-57
2024/02/27 02:32:48;;;;;;;;;;;;;;;16.71;49.11;100974.78;5036779;28;1199;-55
2024/02/27 02:35:14;;;;;;;;;;;;;;;16.43;48.26;100974.94;5032723;28;1973;-56
2024/02/27 02:37:40;;;;;;;;;;;;;;;17.52;48.26;100975.22;5027682;28;1087;-55
2024/02/27 02:40:06;;;;;;;;;;;;;;;16.86;48.95;100987.75;5032548;28;1047;-56
2024/02/27 02:42:32;;;;;;;;;;;;;;;16.56;48.34;100995.59;5026879;28;985;-53
2024/02/27 02:44:58;;;;;;;;;;;;;;;16.42;47.63;100999.91;5036504;28;1155;-55
2024/02/27 02:47:23;;;;;;;;;;;;;;;16.79;48.50;101009.13;5036869;28;1048;-56
2024/02/27 02:49:49;;;;;;;;;;;;;;;17.22;48.47;101007.91;5036282;28;1054;-56
2024/02/27 02:52:14;;;;;;;;;;;;;;;16.73;48.45;101011.00;5036815;28;2834;-55
2024/02/27 02:54:40;;;;;;;;;;;;;;;16.46;48.07;101011.19;5035782;28;1973;-56
2024/02/27 02:57:05;;;;;;;;;;;;;;;17.07;48.34;101016.94;5036707;28;1028;-54
2024/02/27 02:59:31;;;;;;;;;;;;;;;17.37;48.43;101020.00;5036280;28;1127;-56
2024/02/27 03:01:56;;;;;;;;;;;;;;;16.67;48.60;101006.59;5034359;28;1682;-57
2024/02/27 03:04:22;;;;;;;;;;;;;;;16.49;48.14;101010.66;5036279;28;1047;-56
2024/02/27 03:06:47;;;;;;;;;;;;;;;17.18;48.61;101005.94;5033600;28;2305;-58
2024/02/27 03:09:13;;;;;;;;;;;;;;;17.89;47.94;101009.84;5028371;28;1051;-58
2024/02/27 03:11:38;;;;;;;;;;;;;;;16.90;48.96;101010.81;5036313;28;1123;-57
2024/02/27 03:14:06;;;;;;;;;;;;;;;16.66;47.90;101011.28;5036019;28;1147;-58
2024/02/27 03:16:31;;;;;;;;;;;;;;;16.57;47.12;101010.94;5022945;28;1416;-57
2024/02/27 03:18:57;;;;;;;;;;;;;;;16.37;46.64;101002.66;5036426;28;1191;-57
2024/02/27 03:21:22;;;;;;;;;;;;;;;16.21;46.42;101009.94;5036388;28;1059;-57
2024/02/27 03:23:48;;;;;;;;;;;;;;;16.14;45.97;101010.16;5035877;28;1161;-56
2024/02/27 03:26:16;;;;;;;;;;;;;;;17.33;48.24;101018.91;5036805;28;1071;-56
2024/02/27 03:28:42;;;;;;;;;;;;;;;17.19;49.03;101013.91;5036311;28;1039;-56
2024/02/27 03:31:08;;;;;;;;;;;;;;;16.65;48.58;101019.75;5036238;28;1175;-56
2024/02/27 03:33:34;;;;;;;;;;;;;;;16.38;48.10;101021.59;5030670;28;1063;-54
2024/02/27 03:36:02;;;;;;;;;;;;;;;16.22;47.36;101028.06;5034247;28;1909;-57
2024/02/27 03:38:27;;;;;;;;;;;;;;;16.43;47.64;101024.34;5036392;28;1078;-55
2024/02/27 03:40:53;;;;;;;;;;;;;;;17.57;48.20;101020.03;5036335;28;1056;-56
2024/02/27 03:43:18;;;;;;;;;;;;;;;16.65;48.95;101028.84;5035614;28;1067;-56
2024/02/27 03:45:44;;;;;;;;;;;;;;;17.21;48.96;101025.47;5035911;28;1004;-56
2024/02/27 03:48:09;;;;;;;;;;;;;;;17.48;48.64;101034.59;5036080;28;1150;-56
2024/02/27 03:50:35;;;;;;;;;;;;;;;16.79;48.69;101031.09;5035844;28;1226;-55
2024/02/27 03:53:00;;;;;;;;;;;;;;;16.76;48.90;101025.03;5036119;28;1104;-55
2024/02/27 03:55:25;;;;;;;;;;;;;;;17.00;48.90;101027.34;5035023;28;1902;-57
2024/02/27 03:57:51;;;;;;;;;;;;;;;16.58;48.76;101031.00;5035901;28;1114;-55
2024/02/27 04:00:17;;;;;;;;;;;;;;;17.12;48.65;101020.78;5036297;28;1083;-56
2024/02/27 04:02:42;;;;;;;;;;;;;;;17.22;48.55;101020.81;5035246;28;1074;-58
2024/02/27 04:05:09;;;;;;;;;;;;;;;16.69;48.28;101020.88;5034097;28;1107;-58
2024/02/27 04:07:35;;;;;;;;;;;;;;;16.48;47.79;101022.72;5035477;28;1258;-57
2024/02/27 04:10:00;;;;;;;;;;;;;;;16.32;47.07;101010.84;5018985;28;1234;-56
2024/02/27 04:12:25;;;;;;;;;;;;;;;16.63;47.34;101022.78;5026760;28;1048;-57
2024/02/27 04:14:51;;;;;;;;;;;;;;;17.51;48.03;101014.81;5035724;28;1975;-56
2024/02/27 04:17:17;;;;;;;;;;;;;;;16.70;48.71;101023.34;5036144;28;1218;-54
2024/02/27 04:19:42;;;;;;;;;;;;;;;16.45;47.85;101026.00;5032109;28;1075;-57
2024/02/27 04:22:08;;;;;;;;;;;;;;;16.49;48.05;101022.44;5026354;28;1067;-56
2024/02/27 04:24:33;;;;;;;;;;;;;;;17.36;48.28;101041.19;5035690;28;1079;-56
2024/02/27 04:26:59;;;;;;;;;;;;;;;16.64;48.54;101034.59;5036971;28;1187;-56
2024/02/27 04:29:24;;;;;;;;;;;;;;;16.41;47.57;101029.28;5038297;28;1083;-53
2024/02/27 04:31:50;;;;;;;;;;;;;;;16.31;47.12;101029.19;5037646;28;1063;-55
2024/02/27 04:34:15;;;;;;;;;;;;;;;16.11;46.74;101023.59;5039269;28;1957;-56
2024/02/27 04:36:45;;;;;;;;;;;;;;;16.92;47.81;101031.44;5039126;28;1145;-58
2024/02/27 04:39:10;;;;;;;;;;;;;;;17.48;48.17;101034.59;5039157;28;1078;-61
2024/02/27 04:41:35;;;;;;;;;;;;;;;16.63;49.01;101038.44;5039370;28;1064;-60
2024/02/27 04:44:01;;;;;;;;;;;;;;;16.40;48.54;101033.09;5038819;28;1074;-60
2024/02/27 04:46:26;;;;;;;;;;;;;;;17.67;48.09;101043.97;5030820;28;1262;-59
2024/02/27 04:48:52;;;;;;;;;;;;;;;16.80;48.57;101047.28;5034426;28;1203;-59
2024/02/27 04:51:17;;;;;;;;;;;;;;;16.46;48.20;101038.63;5029016;28;1251;-57
2024/02/27 04:53:43;;;;;;;;;;;;;;;17.75;47.94;101043.41;5038565;28;1031;-59
2024/02/27 04:56:08;;;;;;;;;;;;;;;17.03;48.83;101043.28;5038020;28;1979;-59
2024/02/27 04:58:35;;;;;;;;;;;;;;;16.65;48.42;101048.06;5034795;28;1178;-59
2024/02/27 05:01:00;;;;;;;;;;;;;;;16.58;48.73;101051.06;5026868;28;1179;-59
2024/02/27 05:03:26;;;;;;;;;;;;;;;17.97;47.56;101056.09;5032900;28;2006;-59
2024/02/27 05:05:51;;;;;;;;;;;;;;;16.80;49.00;101061.03;5036395;28;1935;-58
2024/02/27 05:08:17;;;;;;;;;;;;;;;16.68;47.98;101060.44;5034396;28;2075;-53
2024/02/27 05:10:42;;;;;;;;;;;;;;;16.39;47.77;101061.63;5033019;28;1947;-56
2024/02/27 05:13:07;;;;;;;;;;;;;;;16.89;47.24;101066.88;5035729;28;1810;-59
2024/02/27 05:15:34;;;;;;;;;;;;;;;17.19;46.54;101077.13;5023523;28;1918;-58
2024/02/27 05:17:59;;;;;;;;;;;;;;;16.80;47.61;101076.69;5037014;28;1183;-60
2024/02/27 05:20:25;;;;;;;;;;;;;;;16.57;48.06;101074.09;5037529;28;1086;-59
2024/02/27 05:22:50;;;;;;;;;;;;;;;16.39;48.95;101082.78;5037215;28;1175;-62
2024/02/27 05:25:16;;;;;;;;;;;;;;;16.24;48.92;101086.22;5028570;28;1013;-63
2024/02/27 05:27:41;;;;;;;;;;;;;;;16.18;49.16;101090.84;5037461;28;1111;-61
2024/02/27 05:30:07;;;;;;;;;;;;;;;15.98;50.00;101091.53;5020999;28;1135;-61
2024/02/27 05:32:33;;;;;;;;;;;;;;;15.92;50.23;101089.81;5031591;28;1136;-63
2024/02/27 05:34:59;;;;;;;;;;;;;;;15.86;50.42;101090.88;5044375;28;1987;-60
2024/02/27 05:37:24;;;;;;;;;;;;;;;15.68;50.65;101103.03;5043687;28;1167;-61
2024/02/27 05:39:50;;;;;;;;;;;;;;;15.56;51.05;101103.19;5024557;28;1083;-60
2024/02/27 05:42:15;;;;;;;;;;;;;;;15.56;51.06;101103.19;5036501;28;1143;-57
2024/02/27 05:44:41;;;;;;;;;;;;;;;15.44;51.15;101108.00;5029036;28;1017;-58
2024/02/27 05:47:06;;;;;;;;;;;;;;;16.83;48.20;101109.94;5031753;28;2513;-58
2024/02/27 05:49:32;;;;;;;;;;;;;;;17.51;46.06;101108.28;5030051;28;1023;-59
2024/02/27 05:51:57;;;;;;;;;;;;;;;16.51;48.80;101113.59;5030952;28;1270;-57
2024/02/27 05:54:23;;;;;;;;;;;;;;;16.16;49.85;101112.25;5028633;28;1910;-58
2024/02/27 05:56:48;;;;;;;;;;;;;;;15.90;50.28;101108.47;5036718;28;1113;-58
2024/02/27 05:59:14;;;;;;;;;;;;;;;15.71;50.75;101119.78;5037225;28;1497;-58
2024/02/27 06:01:40;;;;;;;;;;;;;;;15.64;50.96;101121.91;5035409;28;1166;-57
2024/02/27 06:04:05;;;;;;;;;;;;;;;15.81;51.00;101126.47;5032214;28;1422;-57
2024/02/27 06:06:31;;;;;;;;;;;;;;;17.32;46.86;101129.94;5027149;28;1269;-58
2024/02/27 06:08:56;;;;;;;;;;;;;;;16.97;47.65;101132.28;5031443;28;1384;-58
2024/02/27 06:11:22;;;;;;;;;;;;;;;16.24;49.39;101130.13;5023014;28;1415;-58
2024/02/27 06:13:47;;;;;;;;;;;;;;;15.98;50.21;101131.88;5018102;28;1376;-58
2024/02/27 06:16:13;;;;;;;;;;;;;;;15.79;50.75;101139.59;5032630;28;1909;-58
2024/02/27 06:18:42;;;;;;;;;;;;;;;15.62;51.17;101148.75;5037126;28;1086;-60
2024/02/27 06:23:51;;;;;;;;;;;;;;;17.26;47.25;101145.59;5026941;28;1352;-60
2024/02/27 06:26:17;;;;;;;;;;;;;;;16.99;47.68;101146.56;5026113;28;1395;-60
2024/02/27 06:28:42;;;;;;;;;;;;;;;16.24;49.77;101146.59;5036591;28;1112;-58
2024/02/27 06:31:10;;;;;;;;;;;;;;;16.01;50.21;101151.34;5024195;28;1387;-60
2024/02/27 06:33:36;;;;;;;;;;;;;;;15.79;50.78;101156.06;5029832;28;1008;-59
2024/02/27 06:36:02;;;;;;;;;;;;;;;15.66;51.45;101151.81;5017849;28;1914;-60
2024/02/27 06:38:27;;;;;;;;;;;;;;;15.50;51.54;101162.63;5018199;28;1518;-59
2024/02/27 06:40:53;;;;;;;;;;;;;;;16.23;50.16;101150.47;5018392;28;1352;-59
2024/02/27 06:43:19;;;;;;;;;;;;;;;17.55;46.76;101164.38;5024344;28;1044;-57
2024/02/27 06:45:44;;;;;;;;;;;;;;;16.86;48.32;101161.59;5035161;28;1440;-59
2024/02/27 06:48:11;;;;;;;;;;;;;;;16.21;50.00;101152.63;5029528;28;1450;-59
2024/02/27 06:50:37;;;;;;;;;;;;;;;15.92;50.51;101163.88;5021465;28;1427;-59
2024/02/27 06:53:03;;;;;;;;;;;;;;;15.78;50.91;101165.34;5027667;28;1067;-58
2024/02/27 06:55:29;;;;;;;;;;;;;;;15.64;51.31;101167.69;5034762;28;1984;-58
2024/02/27 06:57:54;;;;;;;;;;;;;;;15.49;51.62;101169.16;5033189;28;1226;-58
2024/02/27 07:00:20;;;;;;;;;;;;;;;16.29;50.08;101165.03;5025868;28;1245;-58
2024/02/27 07:02:47;;;;;;;;;;;;;;;17.52;46.79;101175.94;5032273;28;1142;-58
2024/02/27 07:05:12;;;;;;;;;;;;;;;16.61;48.79;101184.22;5027558;28;1229;-59
2024/02/27 07:07:38;;;;;;;;;;;;;;;16.13;50.13;101186.88;5029555;28;1437;-59
2024/02/27 07:10:03;;;;;;;;;;;;;;;15.92;50.94;101188.56;5035495;28;1153;-59
2024/02/27 07:12:32;;;;;;;;;;;;;;;15.68;51.28;101186.13;5036383;28;1183;-59
2024/02/27 07:14:58;;;;;;;;;;;;;;;15.56;51.76;101190.91;5023400;28;1973;-59
2024/02/27 07:17:23;;;;;;;;;;;;;;;16.50;49.54;101185.25;5035937;28;1359;-57
2024/02/27 07:19:49;;;;;;;;;;;;;;;17.66;46.63;101184.50;5036182;28;1443;-58
2024/02/27 07:22:14;;;;;;;;;;;;;;;16.80;48.57;101189.28;5035686;28;1129;-58
2024/02/27 07:24:40;;;;;;;;;;;;;;;16.18;50.27;101177.84;5035510;28;1355;-59
2024/02/27 07:27:05;;;;;;;;;;;;;;;15.96;50.66;101186.97;5035898;28;1462;-58
2024/02/27 07:29:31;;;;;;;;;;;;;;;15.76;51.22;101189.47;5035447;28;1332;-59
2024/02/27 07:31:56;;;;;;;;;;;;;;;15.64;51.76;101190.47;5035338;28;1339;-58
2024/02/27 07:34:23;;;;;;;;;;;;;;;17.13;47.86;101190.88;5035277;28;1878;-59
2024/02/27 07:36:48;;;;;;;;;;;;;;;17.06;48.00;101195.78;5024952;28;1214;-59
2024/02/27 07:39:15;;;;;;;;;;;;;;;16.25;50.09;101197.66;5018399;28;1374;-58
2024/02/27 07:41:41;;;;;;;;;;;;;;;15.98;50.79;101203.19;5016475;28;1442;-58
2024/02/27 07:44:06;;;;;;;;;;;;;;;15.78;51.12;101206.50;5035530;28;1110;-54
2024/02/27 07:46:33;;;;;;;;;;;;;;;15.63;51.83;101213.47;5034931;28;1083;-53
2024/02/27 07:48:58;;;;;;;;;;;;;;;15.52;51.92;101211.69;5035513;28;1261;-57
2024/02/27 07:51:25;;;;;;;;;;;;;;;16.96;48.58;101213.03;5035573;28;1328;-58
2024/02/27 07:53:50;;;;;;;;;;;;;;;17.45;47.12;101206.41;5028233;28;1043;-58
2024/02/27 07:56:15;;;;;;;;;;;;;;;16.45;49.75;101209.91;5029418;28;1969;-59
2024/02/27 07:58:41;;;;;;;;;;;;;;;16.10;50.39;101211.25;5035116;28;909;-58
2024/02/27 08:01:06;;;;;;;;;;;;;;;15.87;50.97;101225.00;5036661;28;1223;-57
2024/02/27 08:03:32;;;;;;;;;;;;;;;15.69;51.41;101223.38;5031749;28;1135;-60
2024/02/27 08:05:57;;;;;;;;;;;;;;;15.81;51.40;101216.97;5028085;28;1054;-59
2024/02/27 08:08:23;;;;;;;;;;;;;;;17.32;47.69;101229.72;5039396;28;962;-55
2024/02/27 08:10:48;;;;;;;;;;;;;;;16.84;48.73;101220.63;5038482;28;1261;-59
2024/02/27 08:13:14;;;;;;;;;;;;;;;16.27;50.20;101222.94;5039158;28;1328;-54
2024/02/27 08:15:39;;;;;;;;;;;;;;;16.01;50.68;101225.41;5032618;28;1978;-55
2024/02/27 08:18:05;;;;;;;;;;;;;;;15.80;51.39;101229.03;5029444;28;1258;-58
2024/02/27 08:20:31;;;;;;;;;;;;;;;15.62;51.82;101233.72;5038477;28;1087;-59
2024/02/27 08:22:57;;;;;;;;;;;;;;;15.39;52.47;101219.22;5038279;28;1520;-59
2024/02/27 08:25:23;;;;;;;;;;;;;;;16.31;50.50;101225.97;5025400;28;1072;-59
2024/02/27 08:27:48;;;;;;;;;;;;;;;17.56;47.08;101226.53;5029244;28;1446;-58
2024/02/27 08:30:14;;;;;;;;;;;;;;;16.77;49.11;101226.34;5033658;28;1120;-58
2024/02/27 08:32:40;;;;;;;;;;;;;;;16.19;50.72;101226.97;5034961;28;1427;-58
2024/02/27 08:35:06;;;;;;;;;;;;;;;15.93;51.26;101222.31;5035670;28;1969;-58
2024/02/27 08:37:31;;;;;;;;;;;;;;;15.80;51.45;101226.31;5036352;28;1449;-56
2024/02/27 08:39:58;;;;;;;;;;;;;;;15.63;51.86;101220.88;5036154;28;1114;-58
2024/02/27 08:42:24;;;;;;;;;;;;;;;15.43;52.23;101226.91;5034500;28;1407;-53
2024/02/27 08:44:49;;;;;;;;;;;;;;;16.80;49.26;101231.28;5037868;28;1194;-55
2024/02/27 08:47:15;;;;;;;;;;;;;;;17.02;48.47;101231.19;5038093;28;1094;-53
2024/02/27 08:49:43;;;;;;;;;;;;;;;16.24;50.39;101234.41;5038712;28;1102;-58
2024/02/27 08:52:09;;;;;;;;;;;;;;;15.92;51.20;101240.66;5031267;28;1513;-57
2024/02/27 08:54:34;;;;;;;;;;;;;;;15.71;51.97;101245.06;5032490;28;1980;-54
2024/02/27 08:57:00;;;;;;;;;;;;;;;15.54;52.23;101245.13;5038639;28;1043;-57
2024/02/27 08:59:26;;;;;;;;;;;;;;;16.68;49.71;101241.66;5030972;28;1132;-56
2024/02/27 09:01:51;;;;;;;;;;;;;;;17.72;47.00;101241.16;5019444;28;1119;-57
2024/02/27 09:04:17;;;;;;;;;;;;;;;16.68;49.16;101237.00;5026872;28;1309;-57
2024/02/27 09:06:42;;;;;;;;;;;;;;;16.08;50.77;101242.50;5038281;28;1054;-53
2024/02/27 09:09:08;;;;;;;;;;;;;;;15.95;51.20;101247.56;5034041;28;1154;-55
2024/02/27 09:11:34;;;;;;;;;;;;;;;15.76;51.65;101244.31;5037634;28;1297;-50
2024/02/27 09:13:59;;;;;;;;;;;;;;;15.66;51.74;101250.50;5036661;28;1328;-53
2024/02/27 09:16:25;;;;;;;;;;;;;;;16.69;49.62;101240.56;5035654;28;1906;-57
2024/02/27 09:18:50;;;;;;;;;;;;;;;17.57;47.12;101245.50;5037565;28;1091;-57
2024/02/27 09:21:16;;;;;;;;;;;;;;;16.52;49.78;101246.19;5037826;28;1076;-57
2024/02/27 09:23:41;;;;;;;;;;;;;;;16.17;50.67;101244.78;5034884;28;1095;-57
2024/02/27 09:26:07;;;;;;;;;;;;;;;15.83;51.47;101250.47;5028749;28;1230;-56
2024/02/27 09:28:32;;;;;;;;;;;;;;;15.66;51.92;101250.50;5032373;28;896;-56
2024/02/27 09:31:01;;;;;;;;;;;;;;;15.54;52.21;101248.72;5036469;28;1104;-55
2024/02/27 09:33:27;;;;;;;;;;;;;;;16.38;50.29;101257.63;5035217;28;1288;-56
2024/02/27 09:35:52;;;;;;;;;;;;;;;17.61;47.33;101257.63;5029779;28;1901;-56
2024/02/27 09:38:18;;;;;;;;;;;;;;;16.73;49.27;101259.00;5036950;28;1063;-55
2024/02/27 09:40:43;;;;;;;;;;;;;;;16.22;50.54;101255.81;5037973;28;1052;-56
2024/02/27 09:43:12;;;;;;;;;;;;;;;15.92;51.42;101262.59;5028714;28;1333;-55
2024/02/27 09:45:37;;;;;;;;;;;;;;;15.76;51.65;101263.50;5032661;28;1116;-55
2024/02/27 09:48:03;;;;;;;;;;;;;;;15.66;51.83;101261.47;5038366;28;1285;-54
2024/02/27 09:50:29;;;;;;;;;;;;;;;16.91;49.15;101259.69;5036704;28;1393;-53
2024/02/27 09:52:54;;;;;;;;;;;;;;;17.32;47.64;101257.22;5036522;28;1373;-55
2024/02/27 09:55:20;;;;;;;;;;;;;;;16.36;50.22;101262.53;5035945;28;1902;-56
2024/02/27 09:57:48;;;;;;;;;;;;;;;16.04;50.94;101263.28;5037487;28;1364;-56
2024/02/27 10:00:16;;;;;;;;;;;;;;;15.85;51.75;101270.22;5024548;28;1202;-55
2024/02/27 10:02:43;;;;;;;;;;;;;;;15.62;52.09;101257.59;5032739;28;1134;-56
2024/02/27 10:05:09;;;;;;;;;;;;;;;15.47;52.46;101266.44;5036027;28;1091;-56
2024/02/27 10:07:34;;;;;;;;;;;;;;;16.08;51.19;101256.22;5035527;28;1083;-56
2024/02/27 10:10:00;;;;;;;;;;;;;;;17.47;47.83;101255.63;5037229;28;1249;-56
2024/02/27 10:12:25;;;;;;;;;;;;;;;17.19;48.28;101254.94;5025698;28;1116;-57
2024/02/27 10:14:51;;;;;;;;;;;;;;;16.39;50.06;101253.75;5021538;28;1914;-56
2024/02/27 10:17:16;;;;;;;;;;;;;;;15.99;51.32;101251.44;5037094;28;1072;-56
2024/02/27 10:19:42;;;;;;;;;;;;;;;15.87;51.75;101246.13;5037379;28;1147;-59
2024/02/27 10:22:07;;;;;;;;;;;;;;;15.75;51.79;101243.47;5035294;28;1042;-59
2024/02/27 10:24:33;;;;;;;;;;;;;;;16.76;49.83;101243.94;5032473;28;1059;-58
2024/02/27 10:27:02;;;;;;;;;;;;;;;17.52;47.56;101247.41;5024528;28;1028;-60
2024/02/27 10:29:28;;;;;;;;;;;;;;;16.48;50.01;101250.53;5023398;28;1126;-59
2024/02/27 10:31:54;;;;;;;;;;;;;;;16.08;51.06;101253.47;5037242;28;1122;-58
2024/02/27 10:34:21;;;;;;;;;;;;;;;15.85;51.86;101256.50;5034919;28;1052;-59
2024/02/27 10:37:04;;;;;;;;;;;;;;;15.67;52.22;101258.47;5036422;28;2032;-60
2024/02/27 10:39:33;;;;;;;;;;;;;;;15.57;52.35;101258.31;5024146;28;1301;-56
2024/02/27 10:41:58;;;;;;;;;;;;;;;16.58;50.15;101250.66;5028827;28;1191;-61
2024/02/27 10:44:27;;;;;;;;;;;;;;;17.70;47.42;101244.19;5031613;28;1118;-59
2024/02/27 10:46:56;;;;;;;;;;;;;;;16.69;49.35;101246.88;5035185;28;1359;-55
2024/02/27 10:49:21;;;;;;;;;;;;;;;16.19;51.05;101250.84;5033983;28;1474;-59
2024/02/27 10:51:47;;;;;;;;;;;;;;;15.89;51.74;101249.41;5028810;28;1313;-58
2024/02/27 10:54:15;;;;;;;;;;;;;;;15.77;51.72;101254.19;5029551;28;1495;-61
2024/02/27 10:56:40;;;;;;;;;;;;;;;15.66;52.09;101250.50;5029700;28;1906;-59
2024/02/27 10:59:06;;;;;;;;;;;;;;;17.19;48.61;101241.19;5022967;28;1108;-59
2024/02/27 11:01:31;;;;;;;;;;;;;;;17.16;48.27;101258.22;5022014;28;1107;-57
2024/02/27 11:03:57;;;;;;;;;;;;;;;16.39;50.30;101236.47;5036673;28;1137;-57
2024/02/27 11:06:23;;;;;;;;;;;;;;;16.08;50.99;101247.97;5035331;28;1193;-58
2024/02/27 11:09:03;;;;;;;;;;;;;;;15.90;51.40;101248.34;5036497;28;1130;-58
2024/02/27 11:11:29;;;;;;;;;;;;;;;15.68;52.04;101243.69;5035784;28;1221;-57
2024/02/27 11:13:54;;;;;;;;;;;;;;;15.58;52.22;101246.28;5036059;28;1115;-59
2024/02/27 11:16:23;;;;;;;;;;;;;;;17.18;48.50;101250.53;5028499;28;1971;-61
2024/02/27 11:18:49;;;;;;;;;;;;;;;17.13;48.28;101239.53;5024325;28;1329;-59
2024/02/27 11:21:14;;;;;;;;;;;;;;;16.36;50.16;101235.06;5062512;28;1127;-59
2024/02/27 11:23:41;;;;;;;;;;;;;;;15.95;51.43;101240.19;5034184;28;1131;-59
2024/02/27 11:26:07;;;;;;;;;;;;;;;15.84;51.50;101232.94;5036464;28;1175;-59
2024/02/27 11:28:32;;;;;;;;;;;;;;;15.62;52.27;101246.63;5028958;28;1324;-59
2024/02/27 11:30:58;;;;;;;;;;;;;;;15.50;52.38;101249.47;5034665;28;976;-61
2024/02/27 11:33:23;;;;;;;;;;;;;;;16.95;49.19;101255.34;5047834;28;1016;-58
2024/02/27 11:35:49;;;;;;;;;;;;;;;17.78;46.83;101240.91;5049073;28;1997;-58
2024/02/27 11:38:18;;;;;;;;;;;;;;;16.66;49.50;101243.84;5024158;28;1389;-58
2024/02/27 11:40:47;;;;;;;;;;;;;;;16.19;50.63;101237.13;5035048;28;1136;-60
2024/02/27 11:43:14;;;;;;;;;;;;;;;15.88;51.25;101247.78;5037735;28;1135;-59
2024/02/27 11:45:39;;;;;;;;;;;;;;;15.80;51.46;101240.00;5037636;28;1027;-59
2024/02/27 11:48:06;;;;;;;;;;;;;;;15.60;52.18;101241.41;5030913;28;853;-59
2024/02/27 11:50:35;;;;;;;;;;;;;;;15.41;52.54;101243.63;5067749;28;1186;-59
2024/02/27 11:53:24;;;;;;;;;;;;;;;16.13;51.02;101238.16;5028145;28;1046;-58
2024/02/27 11:55:49;;;;;;;;;;;;;;;17.57;47.43;101234.50;5025452;28;1910;-57
2024/02/27 11:58:15;;;;;;;;;;;;;;;16.81;49.03;101229.41;5039858;28;1071;-58
2024/02/27 12:00:43;;;;;;;;;;;;;;;16.23;50.29;101230.84;5038890;28;1058;-55
2024/02/27 12:03:09;;;;;;;;;;;;;;;15.94;51.28;101224.81;5039490;28;1214;-58
2024/02/27 12:05:35;;;;;;;;;;;;;;;15.77;51.73;101232.25;5038291;28;1127;-59
2024/02/27 12:08:00;;;;;;;;;;;;;;;15.56;52.09;101232.03;5038586;28;1090;-59
2024/02/27 12:10:26;;;;;;;;;;;;;;;16.74;49.40;101235.94;5030264;28;1338;-59
2024/02/27 12:12:51;;;;;;;;;;;;;;;17.28;47.70;101234.94;5032752;28;1096;-56
2024/02/27 12:15:17;;;;;;;;;;;;;;;16.46;50.00;101236.25;5036115;28;1902;-57
2024/02/27 12:17:43;;;;;;;;;;;;;;;16.04;50.85;101235.03;5024963;28;1054;-62
2024/02/27 12:20:09;;;;;;;;;;;;;;;15.86;51.48;101244.44;5039458;28;1059;-60
2024/02/27 12:22:35;;;;;;;;;;;;;;;15.74;51.49;101239.09;5038741;28;1066;-59
2024/02/27 12:25:00;;;;;;;;;;;;;;;16.02;51.41;101243.53;5038686;28;888;-59
2024/02/27 12:27:26;;;;;;;;;;;;;;;17.41;47.71;101239.09;5039341;28;1138;-60
2024/02/27 12:29:51;;;;;;;;;;;;;;;16.97;48.70;101236.69;5039522;28;1272;-60
2024/02/27 12:32:17;;;;;;;;;;;;;;;16.26;50.29;101232.25;5039173;28;1018;-60
2024/02/27 12:34:43;;;;;;;;;;;;;;;15.98;51.19;101225.94;5039138;28;1910;-59
2024/02/27 12:37:09;;;;;;;;;;;;;;;15.85;51.43;101237.31;5039010;28;973;-58
2024/02/27 12:39:34;;;;;;;;;;;;;;;15.69;51.63;101234.34;5038722;28;1035;-58
2024/02/27 12:42:02;;;;;;;;;;;;;;;15.57;52.07;101230.91;5038576;28;1111;-58
2024/02/27 12:44:28;;;;;;;;;;;;;;;16.96;48.74;101234.19;5034037;28;1249;-58